Time;durP1;ratioP1;P1;durP2;ratioP2;P2;SDS_P1;SDS_P2;PMS_P1;PMS_P2;Temp;Humidity;BMP_temperature;BMP_pressure;BME280_temperature;BME280_humidity;BME280_pressure;Samples;Min_cycle;Max_cycle;Signal;HPM_P1;HPM_P2
2021/10/23 00:00:07;;;;;;;3.63;1.30;;;;;;;;;;5080361;28;20032;-77
2021/10/23 00:02:33;;;;;;;3.92;0.70;;;;;;;;;;5068075;28;20054;-78
2021/10/23 00:05:00;;;;;;;2.65;0.80;;;;;;;;;;5064518;28;20033;-79
2021/10/23 00:07:26;;;;;;;3.65;1.00;;;;;;;;;;5066024;28;20040;-78
2021/10/23 00:09:53;;;;;;;4.28;1.02;;;;;;;;;;5069870;28;20464;-78
2021/10/23 00:12:20;;;;;;;2.40;0.80;;;;;;;;;;5060502;28;20028;-78
2021/10/23 00:14:46;;;;;;;2.15;0.80;;;;;;;;;;5063965;28;20075;-78
2021/10/23 00:17:12;;;;;;;2.70;0.80;;;;;;;;;;5062396;28;20072;-78
2021/10/23 00:19:39;;;;;;;3.42;1.55;;;;;;;;;;5060289;28;20135;-77
2021/10/23 00:22:05;;;;;;;2.83;1.00;;;;;;;;;;5063135;28;20063;-78
2021/10/23 00:24:32;;;;;;;3.17;0.90;;;;;;;;;;5060387;28;20494;-77
2021/10/23 00:26:58;;;;;;;2.53;0.90;;;;;;;;;;5063578;28;20105;-77
2021/10/23 00:29:24;;;;;;;3.17;0.70;;;;;;;;;;5064637;28;20084;-77
2021/10/23 00:31:51;;;;;;;1.98;0.75;;;;;;;;;;5066637;28;20569;-77
2021/10/23 00:34:17;;;;;;;3.65;1.00;;;;;;;;;;5064464;28;20056;-77
2021/10/23 00:36:44;;;;;;;4.97;1.00;;;;;;;;;;5062788;28;20087;-77
2021/10/23 00:39:10;;;;;;;3.83;0.80;;;;;;;;;;5067961;28;20106;-76
2021/10/23 00:41:36;;;;;;;3.33;0.90;;;;;;;;;;5069378;28;20060;-77
2021/10/23 00:44:03;;;;;;;2.28;0.73;;;;;;;;;;5068074;28;20056;-76
2021/10/23 00:46:29;;;;;;;2.95;0.82;;;;;;;;;;5065829;28;20055;-76
2021/10/23 00:48:56;;;;;;;2.50;0.75;;;;;;;;;;5069370;28;20071;-76
2021/10/23 00:51:22;;;;;;;3.55;1.00;;;;;;;;;;5068374;28;20067;-77
2021/10/23 00:53:49;;;;;;;2.33;0.70;;;;;;;;;;5069807;28;20059;-77
2021/10/23 00:56:17;;;;;;;4.38;0.80;;;;;;;;;;5065610;28;20061;-77
2021/10/23 00:58:45;;;;;;;3.28;0.95;;;;;;;;;;5068679;28;20055;-77
2021/10/23 01:01:12;;;;;;;2.58;1.10;;;;;;;;;;5067768;28;20637;-77
2021/10/23 01:03:39;;;;;;;4.22;1.20;;;;;;;;;;5055355;28;20061;-77
2021/10/23 01:06:07;;;;;;;2.67;0.82;;;;;;;;;;5067551;28;20037;-77
2021/10/23 01:08:33;;;;;;;2.75;0.95;;;;;;;;;;5065598;28;20066;-78
2021/10/23 01:11:00;;;;;;;3.30;0.80;;;;;;;;;;5065637;28;20124;-77
2021/10/23 01:13:26;;;;;;;5.80;0.70;;;;;;;;;;5060783;28;20078;-77
2021/10/23 01:15:53;;;;;;;4.53;0.80;;;;;;;;;;5068272;28;20068;-77
2021/10/23 01:18:19;;;;;;;2.83;0.82;;;;;;;;;;5066677;28;20048;-77
2021/10/23 01:20:45;;;;;;;2.97;0.80;;;;;;;;;;5066488;28;20094;-77
2021/10/23 01:23:12;;;;;;;2.08;0.60;;;;;;;;;;5065961;28;20460;-77
2021/10/23 01:25:38;;;;;;;3.78;0.80;;;;;;;;;;5070512;28;20072;-77
2021/10/23 01:28:05;;;;;;;3.15;0.75;;;;;;;;;;5062918;28;20904;-77
2021/10/23 01:30:32;;;;;;;2.83;0.68;;;;;;;;;;5067437;28;20063;-77
2021/10/23 01:32:59;;;;;;;5.47;1.00;;;;;;;;;;5061086;28;20071;-76
2021/10/23 01:35:26;;;;;;;2.47;0.63;;;;;;;;;;5064687;28;20064;-77
2021/10/23 01:37:54;;;;;;;2.95;0.73;;;;;;;;;;5065840;28;20064;-78
2021/10/23 01:40:23;;;;;;;2.53;0.82;;;;;;;;;;5075660;28;20071;-77
2021/10/23 01:42:49;;;;;;;2.45;0.88;;;;;;;;;;5066633;28;20090;-77
2021/10/23 01:45:16;;;;;;;3.40;0.85;;;;;;;;;;5066844;28;20060;-77
2021/10/23 01:47:43;;;;;;;2.20;0.65;;;;;;;;;;5065926;28;20052;-77
2021/10/23 01:50:17;;;;;;;4.43;0.90;;;;;;;;;;5066031;28;20464;-78
2021/10/23 01:52:44;;;;;;;2.95;0.60;;;;;;;;;;5058992;28;20060;-77
2021/10/23 01:55:11;;;;;;;2.95;0.68;;;;;;;;;;5063478;28;20052;-78
2021/10/23 01:57:39;;;;;;;4.38;0.85;;;;;;;;;;5065824;28;20056;-78
2021/10/23 02:00:06;;;;;;;3.70;0.80;;;;;;;;;;5071407;28;20504;-77
2021/10/23 02:02:32;;;;;;;1.92;0.52;;;;;;;;;;5068441;28;20118;-77
2021/10/23 02:04:59;;;;;;;2.78;0.90;;;;;;;;;;5067857;28;20056;-78
2021/10/23 02:07:25;;;;;;;2.03;0.65;;;;;;;;;;5062580;28;20109;-77
2021/10/23 02:09:51;;;;;;;3.60;0.82;;;;;;;;;;5054308;28;20032;-77
2021/10/23 02:12:18;;;;;;;2.05;0.60;;;;;;;;;;5068702;28;20057;-77
2021/10/23 02:14:46;;;;;;;2.70;0.80;;;;;;;;;;5063739;28;20125;-78
2021/10/23 02:17:12;;;;;;;3.33;0.95;;;;;;;;;;5065016;28;20158;-78
2021/10/23 02:19:39;;;;;;;2.45;0.80;;;;;;;;;;5062093;28;20448;-78
2021/10/23 02:22:05;;;;;;;2.83;0.80;;;;;;;;;;5063762;28;20064;-78
2021/10/23 02:24:31;;;;;;;2.22;0.73;;;;;;;;;;5065843;28;20065;-78
2021/10/23 02:26:58;;;;;;;3.42;0.90;;;;;;;;;;5057778;28;20166;-78
2021/10/23 02:29:24;;;;;;;2.33;0.68;;;;;;;;;;5066668;28;20072;-78
2021/10/23 02:31:51;;;;;;;1.90;0.55;;;;;;;;;;5064657;28;20095;-78
2021/10/23 02:34:18;;;;;;;6.38;0.95;;;;;;;;;;5060987;28;20056;-78
2021/10/23 02:36:45;;;;;;;3.45;0.80;;;;;;;;;;5057400;28;20074;-78
2021/10/23 02:39:11;;;;;;;3.97;1.10;;;;;;;;;;5061787;28;20379;-78
2021/10/23 02:41:38;;;;;;;1.98;0.70;;;;;;;;;;5066247;28;20036;-78
2021/10/23 02:44:04;;;;;;;3.40;0.93;;;;;;;;;;5067916;28;20484;-77
2021/10/23 02:46:31;;;;;;;2.25;0.73;;;;;;;;;;5064393;28;20063;-78
2021/10/23 02:48:57;;;;;;;3.97;1.10;;;;;;;;;;5064029;28;20444;-78
2021/10/23 02:51:24;;;;;;;3.75;0.77;;;;;;;;;;5064987;28;20480;-78
2021/10/23 02:53:50;;;;;;;3.80;0.70;;;;;;;;;;5062775;28;20079;-78
2021/10/23 02:56:17;;;;;;;3.28;0.80;;;;;;;;;;5064048;28;20061;-78
2021/10/23 02:58:43;;;;;;;2.63;0.90;;;;;;;;;;5063810;28;20182;-78
2021/10/23 03:01:10;;;;;;;4.15;0.85;;;;;;;;;;5061914;28;20074;-78
2021/10/23 03:03:36;;;;;;;4.00;0.70;;;;;;;;;;5067140;28;20068;-78
2021/10/23 03:06:03;;;;;;;3.13;0.90;;;;;;;;;;5070622;28;20052;-78
2021/10/23 03:08:29;;;;;;;2.75;0.70;;;;;;;;;;5064901;28;20063;-78
2021/10/23 03:10:56;;;;;;;4.20;0.60;;;;;;;;;;5067881;28;20048;-78
2021/10/23 03:13:22;;;;;;;1.98;0.60;;;;;;;;;;5059884;28;20087;-78
2021/10/23 03:15:48;;;;;;;2.10;0.65;;;;;;;;;;5066003;28;20072;-79
2021/10/23 03:18:15;;;;;;;4.47;0.93;;;;;;;;;;5056570;28;20049;-78
2021/10/23 03:20:41;;;;;;;3.03;0.50;;;;;;;;;;5054517;28;20457;-78
2021/10/23 03:23:08;;;;;;;2.17;0.68;;;;;;;;;;5063042;28;20053;-78
2021/10/23 03:25:34;;;;;;;3.05;0.80;;;;;;;;;;5066383;28;20057;-78
2021/10/23 03:28:01;;;;;;;3.33;0.60;;;;;;;;;;5057223;28;20083;-78
2021/10/23 03:30:27;;;;;;;3.85;0.98;;;;;;;;;;5057564;28;20045;-78
2021/10/23 03:32:53;;;;;;;2.03;0.63;;;;;;;;;;5062990;28;20064;-77
2021/10/23 03:35:20;;;;;;;2.35;0.70;;;;;;;;;;5065639;28;20044;-78
2021/10/23 03:37:46;;;;;;;3.72;1.05;;;;;;;;;;5063103;28;20110;-78
2021/10/23 03:40:13;;;;;;;3.38;0.95;;;;;;;;;;5056528;28;20056;-78
2021/10/23 03:42:39;;;;;;;2.67;0.80;;;;;;;;;;5055399;28;20074;-78
2021/10/23 03:45:06;;;;;;;2.75;0.70;;;;;;;;;;5059284;28;20508;-78
2021/10/23 03:47:32;;;;;;;3.25;0.65;;;;;;;;;;5064015;28;20059;-78
2021/10/23 03:49:59;;;;;;;2.55;0.70;;;;;;;;;;5064092;28;20048;-78
2021/10/23 03:52:25;;;;;;;2.38;0.73;;;;;;;;;;5065492;28;20089;-77
2021/10/23 03:54:51;;;;;;;2.17;0.50;;;;;;;;;;5060609;28;20060;-77
2021/10/23 03:57:18;;;;;;;2.08;0.50;;;;;;;;;;5063741;28;20064;-77
2021/10/23 03:59:45;;;;;;;2.80;0.60;;;;;;;;;;5061836;28;20249;-77
2021/10/23 04:02:11;;;;;;;2.67;0.57;;;;;;;;;;5064178;28;20568;-77
2021/10/23 04:04:37;;;;;;;2.72;0.80;;;;;;;;;;5058829;28;20056;-77
2021/10/23 04:07:04;;;;;;;2.67;0.50;;;;;;;;;;5058449;28;20483;-77
2021/10/23 04:09:30;;;;;;;3.35;0.90;;;;;;;;;;5065482;28;20048;-77
2021/10/23 04:11:57;;;;;;;2.33;0.65;;;;;;;;;;5065149;28;20133;-77
2021/10/23 04:14:23;;;;;;;4.03;0.70;;;;;;;;;;5066660;28;20052;-78
2021/10/23 04:16:50;;;;;;;1.38;0.40;;;;;;;;;;5064413;28;20072;-77
2021/10/23 04:19:16;;;;;;;3.80;1.02;;;;;;;;;;5062876;28;20072;-78
2021/10/23 04:21:43;;;;;;;3.88;1.02;;;;;;;;;;5057823;28;20072;-77
2021/10/23 04:24:10;;;;;;;2.92;0.60;;;;;;;;;;5065659;28;20529;-76
2021/10/23 04:26:39;;;;;;;2.85;0.45;;;;;;;;;;5065012;28;20071;-76
2021/10/23 04:29:06;;;;;;;2.42;0.60;;;;;;;;;;5067643;28;20155;-75
2021/10/23 04:31:33;;;;;;;6.35;0.70;;;;;;;;;;5061068;28;20133;-76
2021/10/23 04:34:01;;;;;;;2.60;0.47;;;;;;;;;;5059340;28;20064;-76
2021/10/23 04:36:27;;;;;;;5.57;0.80;;;;;;;;;;5059773;28;20085;-76
2021/10/23 04:38:54;;;;;;;3.20;0.80;;;;;;;;;;5067293;28;20511;-77
2021/10/23 04:41:20;;;;;;;2.55;0.75;;;;;;;;;;5060860;28;20060;-77
2021/10/23 04:43:47;;;;;;;3.40;0.80;;;;;;;;;;5061002;28;20064;-76
2021/10/23 04:46:13;;;;;;;2.55;0.90;;;;;;;;;;5062100;28;20065;-77
2021/10/23 04:48:40;;;;;;;2.40;0.70;;;;;;;;;;5061314;28;20052;-77
2021/10/23 04:51:06;;;;;;;2.90;0.68;;;;;;;;;;5062216;28;20102;-77
2021/10/23 04:53:32;;;;;;;3.60;0.77;;;;;;;;;;5063080;28;20036;-77
2021/10/23 04:55:59;;;;;;;4.22;0.98;;;;;;;;;;5063216;28;20544;-77
2021/10/23 04:58:25;;;;;;;3.50;1.10;;;;;;;;;;5059603;28;20059;-77
2021/10/23 05:00:52;;;;;;;1.92;0.80;;;;;;;;;;5056037;28;20064;-77
2021/10/23 05:03:18;;;;;;;4.68;0.85;;;;;;;;;;5063127;28;20075;-76
2021/10/23 05:05:45;;;;;;;3.05;0.80;;;;;;;;;;5065442;28;20449;-75
2021/10/23 05:08:11;;;;;;;3.08;0.88;;;;;;;;;;5064013;28;20052;-76
2021/10/23 05:10:39;;;;;;;2.75;0.80;;;;;;;;;;5060830;28;20068;-77
2021/10/23 05:13:06;;;;;;;3.15;0.65;;;;;;;;;;5065934;28;20078;-77
2021/10/23 05:15:32;;;;;;;3.13;0.70;;;;;;;;;;5061317;28;20105;-75
2021/10/23 05:17:59;;;;;;;5.38;1.02;;;;;;;;;;5053697;28;20064;-77
2021/10/23 05:20:25;;;;;;;4.10;0.77;;;;;;;;;;5064017;28;20067;-76
2021/10/23 05:22:52;;;;;;;5.03;0.85;;;;;;;;;;5061780;28;20056;-77
2021/10/23 05:25:18;;;;;;;4.32;0.80;;;;;;;;;;5057999;28;20203;-77
2021/10/23 05:27:44;;;;;;;2.60;0.50;;;;;;;;;;5064996;28;20076;-77
2021/10/23 05:30:11;;;;;;;3.03;0.70;;;;;;;;;;5062807;28;20066;-76
2021/10/23 05:32:39;;;;;;;3.20;0.60;;;;;;;;;;5064634;28;20056;-77
2021/10/23 05:35:05;;;;;;;5.03;0.77;;;;;;;;;;5063850;28;20373;-76
2021/10/23 05:37:32;;;;;;;4.18;0.52;;;;;;;;;;5061479;28;20064;-76
2021/10/23 05:39:58;;;;;;;4.15;0.80;;;;;;;;;;5060887;28;20063;-77
2021/10/23 05:42:24;;;;;;;4.88;0.90;;;;;;;;;;5056562;28;20625;-77
2021/10/23 05:44:51;;;;;;;2.65;0.55;;;;;;;;;;5058804;28;20094;-76
2021/10/23 05:47:17;;;;;;;3.72;0.85;;;;;;;;;;5061412;28;20636;-78
2021/10/23 05:49:44;;;;;;;4.15;0.70;;;;;;;;;;5061729;28;20049;-77
2021/10/23 05:52:10;;;;;;;2.00;0.60;;;;;;;;;;5064147;28;20559;-78
2021/10/23 05:54:37;;;;;;;4.72;0.80;;;;;;;;;;5064605;28;20083;-77
2021/10/23 05:57:07;;;;;;;3.63;0.70;;;;;;;;;;5063056;28;20090;-76
2021/10/23 05:59:37;;;;;;;2.83;0.60;;;;;;;;;;5064577;28;20514;-76
2021/10/23 06:04:50;;;;;;;5.47;0.98;;;;;;;;;;5059299;28;21275;-78
2021/10/23 06:07:16;;;;;;;2.08;0.60;;;;;;;;;;5058369;28;20057;-76
2021/10/23 06:09:43;;;;;;;5.07;1.05;;;;;;;;;;5060306;28;20056;-77
2021/10/23 06:12:10;;;;;;;5.85;1.02;;;;;;;;;;5064695;28;20455;-77
2021/10/23 06:14:36;;;;;;;4.70;0.73;;;;;;;;;;5070026;28;20055;-77
2021/10/23 06:17:04;;;;;;;3.25;0.70;;;;;;;;;;5068280;28;20064;-76
2021/10/23 06:19:31;;;;;;;5.80;1.00;;;;;;;;;;5046620;28;20024;-76
2021/10/23 06:21:58;;;;;;;3.42;0.60;;;;;;;;;;5064456;28;20512;-77
2021/10/23 06:24:24;;;;;;;5.70;1.30;;;;;;;;;;5065511;28;20110;-86
2021/10/23 06:26:51;;;;;;;2.75;0.70;;;;;;;;;;5059749;28;20057;-84
2021/10/23 06:29:17;;;;;;;3.50;1.17;;;;;;;;;;5072912;28;20138;-84
2021/10/23 06:31:44;;;;;;;3.40;1.05;;;;;;;;;;5062191;28;20063;-85
2021/10/23 06:34:10;;;;;;;3.40;0.65;;;;;;;;;;5067177;28;20106;-84
2021/10/23 06:36:37;;;;;;;2.50;0.85;;;;;;;;;;5059333;28;20051;-83
2021/10/23 06:39:03;;;;;;;5.30;0.80;;;;;;;;;;5064326;28;20060;-84
2021/10/23 06:41:30;;;;;;;4.10;0.88;;;;;;;;;;5062604;28;20503;-84
2021/10/23 06:43:56;;;;;;;2.67;0.90;;;;;;;;;;5065206;28;20059;-84
2021/10/23 06:46:24;;;;;;;2.95;0.60;;;;;;;;;;5065970;28;20048;-84
2021/10/23 06:48:51;;;;;;;3.10;0.70;;;;;;;;;;5065654;28;20052;-84
2021/10/23 06:51:17;;;;;;;2.40;0.57;;;;;;;;;;5068320;28;20432;-84
2021/10/23 06:53:44;;;;;;;3.72;0.70;;;;;;;;;;5070085;28;20244;-85
2021/10/23 06:56:10;;;;;;;3.03;0.80;;;;;;;;;;5063378;28;20063;-85
2021/10/23 06:58:37;;;;;;;2.63;0.70;;;;;;;;;;5065654;28;20551;-84
2021/10/23 07:01:05;;;;;;;2.22;0.60;;;;;;;;;;5057270;28;20065;-84
2021/10/23 07:03:31;;;;;;;2.72;0.73;;;;;;;;;;5052416;28;20090;-83
2021/10/23 07:05:58;;;;;;;2.20;0.60;;;;;;;;;;5064102;28;20067;-85
2021/10/23 07:08:24;;;;;;;2.70;0.82;;;;;;;;;;5066586;28;20057;-85
2021/10/23 07:10:50;;;;;;;2.60;0.68;;;;;;;;;;5063768;28;20048;-86
2021/10/23 07:13:17;;;;;;;1.95;0.50;;;;;;;;;;5057716;28;20069;-85
2021/10/23 07:15:43;;;;;;;2.63;0.65;;;;;;;;;;5069396;28;20449;-85
2021/10/23 07:18:10;;;;;;;2.38;0.52;;;;;;;;;;5060943;28;20053;-85
2021/10/23 07:20:36;;;;;;;2.58;0.80;;;;;;;;;;5059308;28;20057;-85
2021/10/23 07:23:03;;;;;;;2.00;0.70;;;;;;;;;;5073092;28;20503;-85
2021/10/23 07:25:29;;;;;;;1.60;0.57;;;;;;;;;;5069677;28;20064;-84
2021/10/23 07:27:56;;;;;;;2.72;0.75;;;;;;;;;;5057793;28;20459;-85
2021/10/23 07:30:23;;;;;;;3.13;0.70;;;;;;;;;;5057975;28;20063;-84
2021/10/23 07:32:50;;;;;;;2.30;0.60;;;;;;;;;;5064504;28;20032;-84
2021/10/23 07:35:16;;;;;;;3.58;0.60;;;;;;;;;;5065093;28;20055;-85
2021/10/23 07:37:42;;;;;;;3.60;0.90;;;;;;;;;;5060160;28;20501;-85
2021/10/23 07:40:10;;;;;;;3.90;0.65;;;;;;;;;;5066616;28;20056;-84
2021/10/23 07:42:37;;;;;;;2.10;0.60;;;;;;;;;;5062382;28;20095;-84
2021/10/23 07:45:05;;;;;;;1.88;0.60;;;;;;;;;;5060472;28;20059;-84
2021/10/23 07:47:32;;;;;;;2.47;0.40;;;;;;;;;;5062657;28;20060;-84
2021/10/23 07:49:58;;;;;;;2.25;0.50;;;;;;;;;;5059275;28;20028;-84
2021/10/23 07:52:25;;;;;;;1.50;0.50;;;;;;;;;;5066118;28;20063;-84
2021/10/23 07:54:51;;;;;;;1.20;0.40;;;;;;;;;;5066716;28;20083;-84
2021/10/23 07:57:18;;;;;;;2.58;0.60;;;;;;;;;;5073176;28;20078;-85
2021/10/23 07:59:45;;;;;;;1.83;0.50;;;;;;;;;;5062474;28;20163;-85
2021/10/23 08:02:11;;;;;;;2.33;0.60;;;;;;;;;;5069413;28;20064;-84
2021/10/23 08:04:38;;;;;;;3.25;0.52;;;;;;;;;;5065645;28;20106;-84
2021/10/23 08:07:05;;;;;;;2.72;0.80;;;;;;;;;;5056998;28;20489;-84
2021/10/23 08:09:40;;;;;;;2.30;0.40;;;;;;;;;;5058110;28;20056;-85
2021/10/23 08:12:08;;;;;;;2.72;0.40;;;;;;;;;;5066574;28;20068;-85
2021/10/23 08:14:36;;;;;;;2.08;0.50;;;;;;;;;;5067668;28;20056;-86
2021/10/23 08:17:03;;;;;;;1.23;0.50;;;;;;;;;;5057415;28;20069;-83
2021/10/23 08:19:29;;;;;;;2.08;0.52;;;;;;;;;;5063127;28;20122;-84
2021/10/23 08:21:56;;;;;;;1.48;0.40;;;;;;;;;;5066391;28;20041;-85
2021/10/23 08:24:22;;;;;;;2.30;0.60;;;;;;;;;;5071057;28;20024;-85
2021/10/23 08:26:48;;;;;;;2.90;0.57;;;;;;;;;;5067722;28;20125;-84
2021/10/23 08:29:15;;;;;;;1.48;0.50;;;;;;;;;;5059887;28;20064;-85
2021/10/23 08:31:45;;;;;;;3.63;0.60;;;;;;;;;;5062673;28;20086;-84
2021/10/23 08:34:12;;;;;;;1.98;0.52;;;;;;;;;;5060226;28;20056;-85
2021/10/23 08:36:38;;;;;;;1.20;0.43;;;;;;;;;;5066083;28;20072;-84
2021/10/23 08:39:05;;;;;;;1.48;0.43;;;;;;;;;;5064667;28;20519;-84
2021/10/23 08:41:32;;;;;;;1.88;0.50;;;;;;;;;;5066326;28;20029;-85
2021/10/23 08:44:02;;;;;;;0.82;0.47;;;;;;;;;;5066302;28;20056;-84
2021/10/23 08:46:29;;;;;;;1.20;0.38;;;;;;;;;;5066240;28;20033;-84
2021/10/23 08:48:56;;;;;;;1.92;0.60;;;;;;;;;;5058410;28;20101;-83
2021/10/23 08:51:23;;;;;;;1.23;0.40;;;;;;;;;;5055260;28;20130;-85
2021/10/23 08:53:53;;;;;;;3.60;0.40;;;;;;;;;;5067756;28;20068;-85
2021/10/23 08:56:20;;;;;;;1.85;0.50;;;;;;;;;;5067135;28;20086;-84
2021/10/23 08:58:46;;;;;;;0.90;0.20;;;;;;;;;;5066335;28;20434;-84
2021/10/23 09:01:14;;;;;;;1.67;0.40;;;;;;;;;;5068422;28;20044;-84
2021/10/23 09:03:47;;;;;;;2.45;0.40;;;;;;;;;;5053753;28;20068;-84
2021/10/23 09:06:28;;;;;;;1.20;0.38;;;;;;;;;;5068786;28;20040;-84
2021/10/23 09:09:13;;;;;;;2.30;0.40;;;;;;;;;;5076415;28;20103;-84
2021/10/23 09:11:41;;;;;;;1.77;0.50;;;;;;;;;;5065412;28;20029;-85
2021/10/23 09:14:23;;;;;;;0.80;0.30;;;;;;;;;;5071982;28;20040;-85
2021/10/23 09:17:19;;;;;;;1.38;0.50;;;;;;;;;;5066745;28;22285;-85
2021/10/23 09:19:46;;;;;;;0.85;0.28;;;;;;;;;;5053841;28;20044;-85
2021/10/23 09:22:22;;;;;;;1.67;0.40;;;;;;;;;;5072833;28;20597;-84
2021/10/23 09:24:52;;;;;;;1.45;0.22;;;;;;;;;;5067291;28;20066;-83
2021/10/23 09:27:19;;;;;;;1.52;0.20;;;;;;;;;;5069631;28;20064;-84
2021/10/23 09:29:53;;;;;;;1.27;0.30;;;;;;;;;;5069688;28;20044;-84
2021/10/23 09:32:20;;;;;;;0.82;0.35;;;;;;;;;;5070448;28;20031;-84
2021/10/23 09:34:46;;;;;;;0.43;0.22;;;;;;;;;;5061580;28;20033;-84
2021/10/23 09:37:13;;;;;;;1.25;0.30;;;;;;;;;;5071951;28;20063;-84
2021/10/23 09:39:39;;;;;;;0.80;0.30;;;;;;;;;;5066750;28;20104;-85
2021/10/23 09:42:10;;;;;;;0.80;0.28;;;;;;;;;;5062886;28;20158;-85
2021/10/23 09:44:37;;;;;;;1.23;0.30;;;;;;;;;;5063199;28;20138;-85
2021/10/23 09:47:04;;;;;;;0.73;0.40;;;;;;;;;;5060759;28;20487;-85
2021/10/23 09:49:31;;;;;;;1.65;0.47;;;;;;;;;;5066090;28;20056;-86
2021/10/23 09:52:07;;;;;;;1.63;0.40;;;;;;;;;;5069154;28;20028;-86
2021/10/23 09:54:35;;;;;;;0.95;0.32;;;;;;;;;;5067576;28;20063;-86
2021/10/23 09:57:08;;;;;;;0.63;0.30;;;;;;;;;;5068512;28;20053;-86
2021/10/23 09:59:38;;;;;;;1.10;0.32;;;;;;;;;;5080830;28;20040;-85
2021/10/23 10:02:06;;;;;;;0.68;0.20;;;;;;;;;;5069932;28;20124;-86
2021/10/23 10:04:33;;;;;;;1.58;0.35;;;;;;;;;;5067126;28;20056;-85
2021/10/23 10:07:01;;;;;;;1.48;0.30;;;;;;;;;;5066438;28;20052;-86
2021/10/23 10:09:27;;;;;;;1.63;0.38;;;;;;;;;;5068577;28;20072;-85
2021/10/23 10:11:55;;;;;;;0.98;0.20;;;;;;;;;;5068833;28;20041;-85
2021/10/23 10:14:28;;;;;;;1.60;0.30;;;;;;;;;;5071617;28;20499;-85
2021/10/23 10:16:55;;;;;;;1.48;0.40;;;;;;;;;;5063243;28;20567;-85
2021/10/23 10:19:22;;;;;;;1.88;0.40;;;;;;;;;;5063735;28;20040;-81
2021/10/23 10:21:50;;;;;;;0.95;0.20;;;;;;;;;;5069552;28;20097;-85
2021/10/23 10:24:18;;;;;;;1.13;0.52;;;;;;;;;;5075214;28;20089;-87
2021/10/23 10:27:02;;;;;;;1.00;0.30;;;;;;;;;;5067008;28;20049;-83
2021/10/23 10:29:53;;;;;;;1.45;0.20;;;;;;;;;;5068383;28;20496;-85
2021/10/23 10:32:28;;;;;;;1.30;0.40;;;;;;;;;;5071230;28;20037;-85
2021/10/23 10:43:06;;;;;;;1.10;0.30;;;;;;;;;;5059321;28;20060;-85
2021/10/23 10:45:41;;;;;;;0.80;0.20;;;;;;;;;;5062826;28;20717;-85
2021/10/23 10:48:18;;;;;;;0.80;0.30;;;;;;;;;;5063587;28;20064;-84
2021/10/23 10:50:44;;;;;;;1.08;0.40;;;;;;;;;;5063445;28;20463;-84
2021/10/23 10:53:15;;;;;;;1.05;0.32;;;;;;;;;;5067975;28;20057;-85
2021/10/23 10:55:41;;;;;;;0.70;0.20;;;;;;;;;;5069349;28;20064;-85
2021/10/23 10:58:09;;;;;;;0.70;0.20;;;;;;;;;;5075049;28;20093;-85
2021/10/23 11:00:48;;;;;;;0.93;0.17;;;;;;;;;;5068928;28;20029;-85
2021/10/23 11:03:39;;;;;;;1.75;0.40;;;;;;;;;;5067809;28;20307;-85
2021/10/23 11:06:24;;;;;;;0.60;0.20;;;;;;;;;;5065574;28;20343;-85
2021/10/23 11:09:22;;;;;;;0.38;0.17;;;;;;;;;;5066811;28;20028;-85
2021/10/23 11:11:49;;;;;;;1.45;0.20;;;;;;;;;;5065136;28;20063;-85
2021/10/23 11:14:27;;;;;;;1.13;0.30;;;;;;;;;;5059969;28;20028;-85
2021/10/23 11:19:21;;;;;;;0.95;0.30;;;;;;;;;;5063067;28;20078;-85
2021/10/23 11:21:54;;;;;;;0.60;0.20;;;;;;;;;;5065071;28;21314;-85
2021/10/23 11:24:24;;;;;;;0.20;0.10;;;;;;;;;;5069014;28;20032;-86
2021/10/23 11:26:50;;;;;;;1.25;0.15;;;;;;;;;;5063454;28;20086;-85
2021/10/23 11:29:18;;;;;;;0.52;0.20;;;;;;;;;;5066757;28;20033;-85
2021/10/23 11:31:45;;;;;;;1.27;0.20;;;;;;;;;;5066637;28;20024;-84
2021/10/23 11:34:31;;;;;;;1.02;0.20;;;;;;;;;;5068525;28;20052;-85
2021/10/23 11:36:59;;;;;;;0.68;0.28;;;;;;;;;;5067496;28;21231;-84
2021/10/23 11:39:25;;;;;;;0.63;0.20;;;;;;;;;;5069237;28;20035;-83
2021/10/23 11:41:52;;;;;;;0.32;0.10;;;;;;;;;;5065495;28;20060;-84
2021/10/23 11:44:28;;;;;;;1.02;0.38;;;;;;;;;;5065455;28;20062;-85
2021/10/23 11:46:57;;;;;;;0.43;0.10;;;;;;;;;;5067712;28;21127;-85
2021/10/23 11:49:33;;;;;;;0.82;0.30;;;;;;;;;;5057188;28;20032;-84
2021/10/23 11:51:59;;;;;;;0.40;0.22;;;;;;;;;;5062441;28;20060;-84
2021/10/23 11:54:27;;;;;;;0.85;0.20;;;;;;;;;;5058836;28;20028;-84
2021/10/23 11:56:53;;;;;;;0.73;0.20;;;;;;;;;;5071206;28;20040;-84
2021/10/23 11:59:24;;;;;;;0.50;0.20;;;;;;;;;;5068428;28;20078;-84
2021/10/23 12:01:50;;;;;;;0.75;0.30;;;;;;;;;;5063180;28;21273;-85
2021/10/23 12:04:21;;;;;;;0.77;0.22;;;;;;;;;;5068198;28;20032;-85
2021/10/23 12:06:49;;;;;;;0.73;0.30;;;;;;;;;;5065385;28;20041;-85
2021/10/23 12:09:18;;;;;;;0.75;0.35;;;;;;;;;;5061541;28;20053;-86
2021/10/23 12:11:45;;;;;;;0.57;0.30;;;;;;;;;;5062583;28;20072;-86
2021/10/23 12:14:15;;;;;;;0.43;0.10;;;;;;;;;;5076229;28;20089;-85
2021/10/23 12:16:45;;;;;;;1.30;0.25;;;;;;;;;;5062686;28;20037;-85
2021/10/23 12:19:13;;;;;;;1.10;0.17;;;;;;;;;;5069052;28;20040;-86
2021/10/23 12:21:40;;;;;;;1.05;0.05;;;;;;;;;;5057085;28;20067;-85
2021/10/23 12:24:16;;;;;;;0.35;0.20;;;;;;;;;;5064144;28;20093;-87
2021/10/23 12:26:43;;;;;;;0.80;0.30;;;;;;;;;;5058058;28;20595;-85
2021/10/23 12:29:10;;;;;;;0.10;0.00;;;;;;;;;;5065628;28;20068;-84
2021/10/23 12:31:56;;;;;;;0.10;0.10;;;;;;;;;;5065550;28;20109;-84
2021/10/23 12:34:23;;;;;;;0.63;0.35;;;;;;;;;;5067708;28;20103;-80
2021/10/23 12:37:00;;;;;;;0.17;0.17;;;;;;;;;;5069241;28;20419;-85
2021/10/23 12:39:27;;;;;;;0.50;0.10;;;;;;;;;;5066241;28;20834;-84
2021/10/23 12:41:55;;;;;;;0.57;0.20;;;;;;;;;;5066108;28;20056;-85
2021/10/23 12:44:26;;;;;;;0.95;0.15;;;;;;;;;;5069551;28;20057;-85
2021/10/23 12:46:53;;;;;;;2.10;0.30;;;;;;;;;;5062067;28;21590;-85
2021/10/23 12:49:23;;;;;;;1.10;0.15;;;;;;;;;;5066534;28;20509;-85
2021/10/23 12:51:50;;;;;;;0.57;0.20;;;;;;;;;;5066079;28;20464;-85
2021/10/23 12:54:17;;;;;;;0.50;0.10;;;;;;;;;;5060558;28;20115;-84
2021/10/23 12:56:47;;;;;;;0.68;0.20;;;;;;;;;;5059939;28;20113;-84
2021/10/23 12:59:13;;;;;;;0.45;0.20;;;;;;;;;;5070448;28;20114;-84
2021/10/23 13:01:40;;;;;;;0.55;0.17;;;;;;;;;;5068193;28;20044;-84
2021/10/23 13:04:06;;;;;;;1.02;0.30;;;;;;;;;;5067849;28;20056;-84
2021/10/23 13:06:33;;;;;;;0.13;0.10;;;;;;;;;;5070834;28;20032;-84
2021/10/23 13:08:59;;;;;;;0.75;0.20;;;;;;;;;;5070567;28;20029;-84
2021/10/23 13:11:27;;;;;;;1.50;0.30;;;;;;;;;;5068102;28;20106;-84
2021/10/23 13:13:53;;;;;;;0.95;0.32;;;;;;;;;;5064670;28;20064;-83
2021/10/23 13:16:20;;;;;;;0.10;0.10;;;;;;;;;;5070649;28;20061;-84
2021/10/23 13:18:46;;;;;;;0.63;0.30;;;;;;;;;;5060377;28;20473;-84
2021/10/23 13:21:13;;;;;;;1.13;0.20;;;;;;;;;;5063242;28;20091;-83
2021/10/23 13:23:39;;;;;;;2.17;0.30;;;;;;;;;;5064308;28;20047;-84
2021/10/23 13:26:06;;;;;;;0.73;0.22;;;;;;;;;;5066605;28;20048;-85
2021/10/23 13:28:32;;;;;;;1.33;0.28;;;;;;;;;;5073235;28;20103;-85
2021/10/23 13:30:59;;;;;;;1.55;0.30;;;;;;;;;;5068718;28;20676;-85
2021/10/23 13:33:25;;;;;;;1.85;0.30;;;;;;;;;;5061721;28;20519;-84
2021/10/23 13:35:52;;;;;;;0.88;0.20;;;;;;;;;;5070419;28;20068;-85
2021/10/23 13:38:18;;;;;;;1.60;0.38;;;;;;;;;;5063638;28;20072;-84
2021/10/23 13:40:45;;;;;;;0.28;0.10;;;;;;;;;;5063186;28;20028;-85
2021/10/23 13:43:11;;;;;;;1.13;0.28;;;;;;;;;;5064223;28;20069;-84
2021/10/23 13:45:38;;;;;;;1.23;0.17;;;;;;;;;;5068008;28;20045;-84
2021/10/23 13:48:04;;;;;;;0.65;0.20;;;;;;;;;;5059636;28;20521;-85
2021/10/23 13:50:34;;;;;;;1.17;0.63;;;;;;;;;;5067435;28;20060;-85
2021/10/23 13:53:01;;;;;;;1.15;0.40;;;;;;;;;;5068056;28;20105;-85
2021/10/23 13:55:28;;;;;;;0.47;0.20;;;;;;;;;;5065574;28;20067;-84
2021/10/23 13:57:54;;;;;;;0.45;0.20;;;;;;;;;;5070898;28;20068;-84
2021/10/23 14:00:22;;;;;;;0.50;0.20;;;;;;;;;;5066283;28;20070;-84
2021/10/23 14:02:49;;;;;;;0.47;0.20;;;;;;;;;;5068467;28;21624;-85
2021/10/23 14:05:15;;;;;;;0.32;0.17;;;;;;;;;;5067815;28;20059;-85
2021/10/23 14:07:41;;;;;;;1.95;0.30;;;;;;;;;;5059807;28;20057;-84
2021/10/23 14:10:08;;;;;;;0.98;0.30;;;;;;;;;;5071026;28;20055;-85
2021/10/23 14:12:34;;;;;;;0.32;0.10;;;;;;;;;;5068628;28;20507;-85
2021/10/23 14:15:01;;;;;;;1.52;0.20;;;;;;;;;;5069223;28;20110;-84
2021/10/23 14:17:28;;;;;;;0.20;0.10;;;;;;;;;;5064776;28;20072;-84
2021/10/23 14:19:54;;;;;;;0.38;0.20;;;;;;;;;;5054731;28;20056;-85
2021/10/23 14:22:22;;;;;;;0.85;0.30;;;;;;;;;;5069684;28;20553;-84
2021/10/23 14:24:50;;;;;;;1.42;0.40;;;;;;;;;;5067789;28;20056;-84
2021/10/23 14:27:27;;;;;;;0.63;0.20;;;;;;;;;;5064588;28;20056;-84
2021/10/23 14:29:54;;;;;;;1.05;0.20;;;;;;;;;;5066366;28;20635;-84
2021/10/23 14:32:20;;;;;;;0.70;0.28;;;;;;;;;;5065972;28;20091;-85
2021/10/23 14:34:46;;;;;;;0.82;0.20;;;;;;;;;;5067639;28;20049;-84
2021/10/23 14:37:13;;;;;;;1.17;0.30;;;;;;;;;;5066341;28;20098;-85
2021/10/23 14:39:39;;;;;;;2.78;0.32;;;;;;;;;;5070914;28;20056;-84
2021/10/23 14:42:06;;;;;;;1.23;0.30;;;;;;;;;;5070300;28;20032;-85
2021/10/23 14:44:32;;;;;;;0.93;0.30;;;;;;;;;;5066149;28;20032;-84
2021/10/23 14:47:00;;;;;;;1.23;0.28;;;;;;;;;;5051716;28;20043;-83
2021/10/23 14:49:26;;;;;;;0.57;0.20;;;;;;;;;;5061835;28;20049;-84
2021/10/23 14:51:53;;;;;;;0.82;0.32;;;;;;;;;;5070483;28;20082;-85
2021/10/23 14:54:19;;;;;;;1.70;0.40;;;;;;;;;;5066995;28;20037;-85
2021/10/23 14:56:46;;;;;;;1.10;0.20;;;;;;;;;;5070591;28;20436;-85
2021/10/23 14:59:12;;;;;;;0.10;0.10;;;;;;;;;;5068526;28;20082;-84